Time;durP1;ratioP1;P1;durP2;ratioP2;P2;SDS_P1;SDS_P2;PMS_P1;PMS_P2;Temp;Humidity;BMP_temperature;BMP_pressure;BME280_temperature;BME280_humidity;BME280_pressure;Samples;Min_cycle;Max_cycle;Signal;HPM_P1;HPM_P2
2022/05/14 00:01:21;;;;;;;34.60;9.98;;;12.70;99.90;;;;;;4975317;28;20050;-81
2022/05/14 00:03:47;;;;;;;35.38;8.45;;;12.80;99.90;;;;;;4975185;28;20054;-80
2022/05/14 00:06:18;;;;;;;26.17;9.43;;;12.80;99.90;;;;;;4975130;28;20093;-84
2022/05/14 00:08:44;;;;;;;32.88;8.90;;;12.80;99.90;;;;;;4975209;28;20051;-83
2022/05/14 00:13:56;;;;;;;34.55;9.43;;;12.80;99.90;;;;;;4975339;28;20106;-82
2022/05/14 00:16:24;;;;;;;36.35;9.35;;;12.80;99.90;;;;;;4979122;28;20062;-82
2022/05/14 00:18:51;;;;;;;33.10;10.27;;;12.80;99.90;;;;;;4980098;28;20478;-83
2022/05/14 00:21:19;;;;;;;39.83;10.23;;;12.80;99.90;;;;;;4975438;28;20376;-84
2022/05/14 00:23:45;;;;;;;39.17;9.98;;;12.80;99.90;;;;;;4973468;28;20043;-81
2022/05/14 00:26:12;;;;;;;43.63;9.63;;;12.80;99.90;;;;;;4957463;28;20054;-81
2022/05/14 00:28:38;;;;;;;32.03;9.23;;;12.80;99.90;;;;;;4974076;28;20047;-80
2022/05/14 00:31:04;;;;;;;33.50;9.68;;;12.80;99.90;;;;;;4957486;28;20058;-84
2022/05/14 00:33:30;;;;;;;37.30;9.73;;;12.80;99.90;;;;;;4973978;28;20387;-83
2022/05/14 00:35:57;;;;;;;32.15;9.65;;;12.80;99.90;;;;;;4958029;28;20061;-83
2022/05/14 00:38:23;;;;;;;34.38;9.45;;;12.80;99.90;;;;;;4974613;28;20053;-81
2022/05/14 00:40:57;;;;;;;32.38;9.73;;;12.80;99.90;;;;;;4973260;28;20050;-80
2022/05/14 00:43:23;;;;;;;49.03;10.85;;;12.90;99.90;;;;;;4974169;28;20502;-83
2022/05/14 00:46:18;;;;;;;33.22;9.63;;;12.90;99.90;;;;;;4974300;28;20174;-84
2022/05/14 00:48:46;;;;;;;35.90;10.73;;;12.90;99.90;;;;;;4975544;28;20054;-81
2022/05/14 00:51:19;;;;;;;33.20;10.45;;;12.90;99.90;;;;;;4958335;28;20055;-83
2022/05/14 00:53:51;;;;;;;44.03;11.80;;;12.80;99.90;;;;;;4974163;28;20063;-84
2022/05/14 00:56:22;;;;;;;36.28;10.48;;;12.80;99.90;;;;;;4958247;28;20487;-83
2022/05/14 00:58:57;;;;;;;43.38;12.10;;;12.80;99.90;;;;;;4964964;28;20417;-81
2022/05/14 01:01:23;;;;;;;42.40;11.05;;;12.70;99.90;;;;;;4973795;28;20043;-84
2022/05/14 01:03:49;;;;;;;44.83;12.45;;;12.70;99.90;;;;;;4975394;28;20082;-81
2022/05/14 01:06:19;;;;;;;44.20;11.77;;;12.60;99.90;;;;;;4975559;28;20089;-82
2022/05/14 01:08:47;;;;;;;35.60;10.07;;;12.60;99.90;;;;;;4974353;28;20118;-82
2022/05/14 01:11:13;;;;;;;42.65;10.68;;;12.50;99.90;;;;;;4956790;28;20101;-82
2022/05/14 01:13:39;;;;;;;43.13;10.02;;;12.50;99.90;;;;;;4940693;28;20047;-82
2022/05/14 01:16:05;;;;;;;44.50;10.63;;;12.50;99.90;;;;;;4955239;28;20506;-81
2022/05/14 01:18:35;;;;;;;45.72;11.35;;;12.40;99.90;;;;;;4958127;28;20055;-80
2022/05/14 01:21:06;;;;;;;43.03;11.68;;;12.40;99.90;;;;;;4956765;28;20113;-79
2022/05/14 01:26:29;;;;;;;42.50;12.25;;;12.40;99.90;;;;;;4971905;28;20799;-83
2022/05/14 01:29:01;;;;;;;50.85;11.50;;;12.30;99.90;;;;;;4972386;28;20054;-79
2022/05/14 01:31:32;;;;;;;41.40;11.35;;;12.30;99.90;;;;;;4939927;28;20062;-82
2022/05/14 01:34:08;;;;;;;40.33;11.68;;;12.30;99.90;;;;;;4976503;28;20055;-79
2022/05/14 01:36:36;;;;;;;49.38;12.43;;;12.30;99.90;;;;;;4956855;28;20141;-79
2022/05/14 01:39:03;;;;;;;41.80;10.50;;;12.30;99.90;;;;;;4956125;28;20050;-82
2022/05/14 01:41:28;;;;;;;40.92;10.63;;;12.30;99.90;;;;;;4974056;28;20090;-84
2022/05/14 01:43:54;;;;;;;42.85;11.30;;;12.20;99.90;;;;;;4956153;28;20517;-83
2022/05/14 01:46:20;;;;;;;40.03;10.85;;;12.20;99.90;;;;;;4973573;28;20471;-82
2022/05/14 01:48:47;;;;;;;35.80;11.40;;;12.10;99.90;;;;;;4973477;28;20134;-79
2022/05/14 01:51:13;;;;;;;48.85;11.85;;;12.10;99.90;;;;;;4976399;28;20190;-83
2022/05/14 01:53:40;;;;;;;42.83;12.38;;;12.00;99.90;;;;;;4956009;28;20057;-83
2022/05/14 01:56:06;;;;;;;47.25;13.38;;;12.00;99.90;;;;;;4973374;28;20094;-81
2022/05/14 01:58:38;;;;;;;43.95;12.40;;;12.00;99.90;;;;;;4973130;28;20097;-81
2022/05/14 02:01:41;;;;;;;44.60;12.57;;;12.00;99.90;;;;;;4972898;28;20055;-80
2022/05/14 02:04:11;;;;;;;45.70;13.32;;;11.90;99.90;;;;;;4956834;28;20113;-82
2022/05/14 02:06:37;;;;;;;42.38;13.18;;;11.90;99.90;;;;;;4973287;28;20047;-79
2022/05/14 02:09:06;;;;;;;52.55;13.27;;;11.90;99.90;;;;;;4939285;28;20089;-80
2022/05/14 02:11:32;;;;;;;43.50;12.52;;;11.80;99.90;;;;;;4955295;28;20046;-80
2022/05/14 02:13:58;;;;;;;51.42;14.05;;;11.80;99.90;;;;;;4972488;28;20055;-80
2022/05/14 02:20:06;;;;;;;49.40;13.07;;;11.80;99.90;;;;;;4973203;28;20674;-81
2022/05/14 02:22:32;;;;;;;51.15;13.27;;;11.80;99.90;;;;;;4975760;28;20078;-82
2022/05/14 02:24:58;;;;;;;47.08;12.13;;;11.80;99.90;;;;;;4955570;28;20125;-79
2022/05/14 02:27:24;;;;;;;54.28;13.13;;;11.70;99.90;;;;;;4972592;28;20524;-80
2022/05/14 02:29:56;;;;;;;44.42;13.75;;;11.70;99.90;;;;;;4972041;28;20062;-80
2022/05/14 02:32:25;;;;;;;55.00;13.27;;;11.70;99.90;;;;;;4972418;28;20101;-79
2022/05/14 02:34:52;;;;;;;45.40;11.80;;;11.70;99.90;;;;;;4972540;28;20050;-82
2022/05/14 02:37:21;;;;;;;47.70;12.45;;;11.60;99.90;;;;;;4974338;28;20066;-84
2022/05/14 02:39:46;;;;;;;52.58;12.20;;;11.60;99.90;;;;;;4955224;28;20499;-84
2022/05/14 02:42:12;;;;;;;51.53;12.13;;;11.70;99.90;;;;;;4954830;28;20054;-82
2022/05/14 02:44:38;;;;;;;44.03;11.35;;;11.70;99.90;;;;;;4954881;28;20054;-82
2022/05/14 02:47:04;;;;;;;41.88;13.57;;;11.70;99.90;;;;;;4972043;28;20054;-84
2022/05/14 02:49:30;;;;;;;46.38;11.70;;;11.60;99.90;;;;;;4971998;28;20057;-82
2022/05/14 02:51:57;;;;;;;52.22;12.27;;;11.60;99.90;;;;;;4974553;28;20108;-79
2022/05/14 02:54:23;;;;;;;43.95;12.95;;;11.60;99.90;;;;;;4939397;28;20065;-83
2022/05/14 02:56:49;;;;;;;44.17;12.60;;;11.60;99.90;;;;;;4971975;28;20384;-82
2022/05/14 02:59:15;;;;;;;52.88;13.93;;;11.60;99.90;;;;;;4954760;28;20057;-81
2022/05/14 03:01:50;;;;;;;52.92;11.50;;;11.60;99.90;;;;;;4972111;28;20054;-81
2022/05/14 03:04:22;;;;;;;48.88;12.73;;;11.60;99.90;;;;;;4954795;28;20055;-80
2022/05/14 03:06:50;;;;;;;44.55;11.73;;;11.60;99.90;;;;;;4956287;28;20082;-80
2022/05/14 03:09:16;;;;;;;51.50;14.05;;;11.60;99.90;;;;;;4973549;28;20113;-82
2022/05/14 03:11:42;;;;;;;46.55;11.18;;;11.50;99.90;;;;;;4971909;28;20055;-82
2022/05/14 03:14:09;;;;;;;43.97;12.20;;;11.50;99.90;;;;;;4972241;28;20058;-82
2022/05/14 03:16:36;;;;;;;50.58;14.18;;;11.50;99.90;;;;;;4971958;28;20197;-82
2022/05/14 03:19:02;;;;;;;52.17;12.95;;;11.60;99.90;;;;;;4972043;28;20453;-80
2022/05/14 03:21:28;;;;;;;40.65;11.70;;;11.60;99.90;;;;;;4954653;28;20193;-83
2022/05/14 03:23:54;;;;;;;49.40;12.98;;;11.60;99.90;;;;;;4973311;28;20054;-80
2022/05/14 03:26:20;;;;;;;39.42;11.55;;;11.50;99.90;;;;;;4956608;28;20065;-80
2022/05/14 03:28:46;;;;;;;58.28;14.32;;;11.50;99.90;;;;;;4974410;28;20058;-80
2022/05/14 03:31:13;;;;;;;52.05;13.05;;;11.50;99.90;;;;;;4941850;28;20137;-85
2022/05/14 03:33:39;;;;;;;42.50;13.75;;;11.40;99.90;;;;;;4942331;28;20051;-81
2022/05/14 03:36:06;;;;;;;48.83;12.10;;;11.40;99.90;;;;;;4942477;28;20541;-82
2022/05/14 03:38:32;;;;;;;47.00;10.98;;;11.40;99.90;;;;;;4958019;28;20058;-84
2022/05/14 03:40:58;;;;;;;44.85;12.27;;;11.30;99.90;;;;;;4945226;28;20071;-81
2022/05/14 03:43:24;;;;;;;41.88;11.18;;;11.30;99.90;;;;;;4958795;28;20050;-82
2022/05/14 03:45:49;;;;;;;40.55;10.68;;;11.30;99.90;;;;;;4942086;28;20415;-83
2022/05/14 03:48:15;;;;;;;37.83;10.02;;;11.30;99.90;;;;;;4958074;28;20486;-83
2022/05/14 03:50:41;;;;;;;34.10;9.88;;;11.30;99.90;;;;;;4957777;28;20126;-81
2022/05/14 03:53:07;;;;;;;35.58;10.27;;;11.20;99.90;;;;;;4957716;28;20058;-85
2022/05/14 03:55:34;;;;;;;57.20;13.25;;;11.20;99.90;;;;;;4976337;28;20058;-83
2022/05/14 03:57:59;;;;;;;46.40;10.98;;;11.20;99.90;;;;;;4976009;28;20157;-81
2022/05/14 04:00:25;;;;;;;46.15;13.63;;;11.20;99.90;;;;;;4976763;28;20063;-83
2022/05/14 04:02:51;;;;;;;38.95;11.60;;;11.10;99.90;;;;;;4975368;28;20043;-83
2022/05/14 04:05:17;;;;;;;34.00;9.95;;;11.10;99.90;;;;;;4975384;28;20446;-82
2022/05/14 04:07:43;;;;;;;35.42;10.70;;;11.10;99.90;;;;;;4957237;28;20130;-82
2022/05/14 04:10:16;;;;;;;42.58;11.57;;;11.10;99.90;;;;;;4975198;28;20050;-83
2022/05/14 04:12:42;;;;;;;37.20;10.30;;;11.10;99.90;;;;;;4978927;28;20055;-81
2022/05/14 04:15:10;;;;;;;45.10;10.95;;;11.10;99.90;;;;;;4957931;28;20142;-84
2022/05/14 04:17:36;;;;;;;43.05;10.82;;;11.10;99.90;;;;;;4957567;28;20066;-80
2022/05/14 04:20:03;;;;;;;44.42;12.57;;;11.00;99.90;;;;;;4974992;28;20061;-83
2022/05/14 04:22:29;;;;;;;44.58;11.90;;;11.10;99.90;;;;;;4941204;28;20051;-83
2022/05/14 04:24:55;;;;;;;36.95;11.52;;;11.10;99.90;;;;;;4975088;28;20113;-82
2022/05/14 04:27:21;;;;;;;47.92;11.13;;;11.10;99.90;;;;;;4975295;28;20047;-78
2022/05/14 04:29:47;;;;;;;36.72;11.55;;;11.10;99.90;;;;;;4975311;28;20561;-82
2022/05/14 04:32:13;;;;;;;39.10;9.88;;;11.10;99.90;;;;;;4975137;28;20047;-78
2022/05/14 04:34:40;;;;;;;36.97;10.52;;;11.10;99.90;;;;;;4974589;28;20495;-83
2022/05/14 04:37:06;;;;;;;43.88;10.40;;;11.10;99.90;;;;;;4974476;28;20062;-83
2022/05/14 04:39:31;;;;;;;41.65;11.23;;;11.10;99.90;;;;;;4973327;28;20534;-81
2022/05/14 04:42:00;;;;;;;34.97;9.25;;;11.20;99.90;;;;;;4975417;28;20517;-80
2022/05/14 04:44:28;;;;;;;41.05;10.98;;;11.20;99.90;;;;;;4974524;28;20043;-82
2022/05/14 04:46:55;;;;;;;45.05;12.45;;;11.30;99.90;;;;;;4957211;28;20093;-80
2022/05/14 04:49:21;;;;;;;40.55;9.95;;;11.30;99.90;;;;;;4974252;28;20076;-80
2022/05/14 04:51:47;;;;;;;34.45;9.30;;;11.30;99.90;;;;;;4974271;28;20118;-80
2022/05/14 04:54:13;;;;;;;43.80;11.80;;;11.40;99.90;;;;;;4973929;28;20058;-80
2022/05/14 04:56:41;;;;;;;33.83;8.93;;;11.40;99.90;;;;;;4974928;28;20046;-79
2022/05/14 04:59:07;;;;;;;37.40;10.02;;;11.50;99.90;;;;;;4956846;28;20063;-82
2022/05/14 05:01:33;;;;;;;39.25;9.65;;;11.50;99.90;;;;;;4974312;28;20508;-83
2022/05/14 05:03:59;;;;;;;35.13;9.40;;;11.60;99.90;;;;;;4957980;28;20133;-81
2022/05/14 05:06:25;;;;;;;38.25;10.85;;;11.70;99.90;;;;;;4972751;28;20053;-80
2022/05/14 05:08:52;;;;;;;29.00;8.77;;;11.70;99.90;;;;;;4956826;28;20043;-82
2022/05/14 05:11:24;;;;;;;32.45;9.90;;;11.80;99.90;;;;;;4974148;28;20062;-81
2022/05/14 05:13:50;;;;;;;35.85;10.57;;;11.80;99.90;;;;;;4973883;28;20078;-79
2022/05/14 05:16:16;;;;;;;38.00;10.80;;;11.80;99.90;;;;;;4974582;28;20051;-80
2022/05/14 05:18:42;;;;;;;34.72;9.10;;;11.90;99.90;;;;;;4974020;28;20055;-80
2022/05/14 05:21:08;;;;;;;35.75;9.25;;;11.90;99.90;;;;;;4972081;28;20406;-83
2022/05/14 05:23:37;;;;;;;37.80;11.25;;;12.00;99.90;;;;;;4940392;28;20050;-84
2022/05/14 05:26:03;;;;;;;26.98;8.23;;;12.10;99.90;;;;;;4941162;28;20399;-79
2022/05/14 05:28:29;;;;;;;37.22;9.95;;;12.30;99.90;;;;;;4956351;28;20053;-84
2022/05/14 05:30:56;;;;;;;27.83;8.25;;;12.40;99.90;;;;;;4972693;28;20050;-84
2022/05/14 05:33:24;;;;;;;32.17;8.15;;;12.50;99.90;;;;;;4956399;28;20198;-83
2022/05/14 05:35:50;;;;;;;25.55;6.78;;;12.60;99.90;;;;;;4973650;28;20065;-81
2022/05/14 05:38:17;;;;;;;28.05;6.43;;;12.70;99.90;;;;;;4973253;28;20055;-79
2022/05/14 05:40:43;;;;;;;24.20;5.38;;;12.90;99.90;;;;;;4973947;28;20050;-84
2022/05/14 05:43:10;;;;;;;24.30;5.97;;;13.10;99.90;;;;;;4973731;28;20129;-82
2022/05/14 05:45:38;;;;;;;26.35;5.63;;;13.30;99.90;;;;;;4956256;28;20058;-80
2022/05/14 05:48:05;;;;;;;15.57;5.53;;;13.40;99.90;;;;;;4977078;28;20435;-81
2022/05/14 05:50:31;;;;;;;23.77;5.47;;;13.50;99.90;;;;;;4956855;28;20094;-83
2022/05/14 05:52:57;;;;;;;21.85;5.25;;;13.70;99.90;;;;;;4955555;28;20097;-82
2022/05/14 05:58:08;;;;;;;29.63;5.70;;;13.90;99.90;;;;;;4973000;28;20049;-83
2022/05/14 06:00:36;;;;;;;24.83;5.32;;;14.10;99.90;;;;;;4972950;28;20487;-85
2022/05/14 06:03:02;;;;;;;23.77;5.68;;;14.20;99.90;;;;;;4974685;28;20371;-84
2022/05/14 06:05:28;;;;;;;21.33;5.60;;;14.20;99.90;;;;;;4955487;28;20570;-80
2022/05/14 06:07:54;;;;;;;25.80;5.75;;;14.30;99.90;;;;;;4955473;28;20442;-80
2022/05/14 06:10:22;;;;;;;24.05;5.15;;;14.40;99.90;;;;;;4973208;28;20453;-85
2022/05/14 06:12:48;;;;;;;25.20;5.65;;;14.50;99.90;;;;;;4959792;28;20085;-83
2022/05/14 06:15:17;;;;;;;23.02;5.13;;;14.60;99.90;;;;;;4976056;28;20054;-83
2022/05/14 06:17:43;;;;;;;32.95;6.20;;;14.60;99.90;;;;;;4973882;28;20050;-84
2022/05/14 06:20:12;;;;;;;26.67;5.78;;;14.70;99.90;;;;;;4939805;28;20514;-83
2022/05/14 06:22:38;;;;;;;24.35;5.53;;;14.80;99.90;;;;;;4974212;28;20503;-84
2022/05/14 06:25:06;;;;;;;21.83;5.35;;;14.80;99.90;;;;;;4975346;28;20057;-84
2022/05/14 06:27:32;;;;;;;19.98;4.90;;;14.70;99.90;;;;;;4972899;28;20193;-83
2022/05/14 06:29:58;;;;;;;28.90;6.03;;;14.80;99.90;;;;;;4972619;28;20050;-85
2022/05/14 06:32:24;;;;;;;23.08;5.18;;;14.90;99.90;;;;;;4972988;28;20047;-81
2022/05/14 06:34:50;;;;;;;32.63;5.90;;;15.00;99.90;;;;;;4977408;28;20054;-84
2022/05/14 06:37:17;;;;;;;22.65;5.25;;;15.20;99.90;;;;;;4972138;28;20058;-82
2022/05/14 06:39:43;;;;;;;29.13;5.82;;;15.30;99.90;;;;;;4973320;28;20058;-82
2022/05/14 06:42:11;;;;;;;32.10;7.03;;;15.30;99.90;;;;;;4939946;28;20051;-81
2022/05/14 06:44:37;;;;;;;24.65;5.63;;;15.40;99.90;;;;;;4955568;28;20058;-79
2022/05/14 06:47:10;;;;;;;23.02;5.68;;;15.60;99.90;;;;;;4939581;28;20055;-83
2022/05/14 06:49:36;;;;;;;24.05;5.03;;;15.70;99.90;;;;;;4954830;28;20059;-80
2022/05/14 06:52:03;;;;;;;25.20;5.43;;;15.80;99.90;;;;;;4955443;28;20533;-79
2022/05/14 06:54:32;;;;;;;28.83;6.07;;;15.90;99.90;;;;;;4977317;28;20497;-84
2022/05/14 06:57:00;;;;;;;26.48;7.25;;;16.00;99.90;;;;;;4973949;28;20093;-82
2022/05/14 06:59:27;;;;;;;23.92;5.47;;;16.10;99.90;;;;;;4939382;28;20142;-80
2022/05/14 07:01:55;;;;;;;31.80;6.22;;;16.20;99.90;;;;;;4972690;28;20057;-82
2022/05/14 07:07:05;;;;;;;22.83;5.20;;;16.40;99.90;;;;;;4958915;28;20569;-83
2022/05/14 07:09:32;;;;;;;24.40;5.88;;;16.40;99.90;;;;;;4975132;28;20071;-84
2022/05/14 07:12:03;;;;;;;20.40;4.50;;;16.50;99.90;;;;;;4958241;28;20050;-81
2022/05/14 07:14:31;;;;;;;18.42;5.22;;;16.70;99.90;;;;;;4958939;28;20573;-83
2022/05/14 07:16:56;;;;;;;26.40;6.25;;;16.70;99.90;;;;;;4959288;28;20399;-83
2022/05/14 07:19:24;;;;;;;22.75;5.45;;;16.70;99.90;;;;;;4958557;28;20507;-82
2022/05/14 07:21:52;;;;;;;24.60;5.78;;;16.80;99.90;;;;;;4976085;28;20093;-84
2022/05/14 07:24:21;;;;;;;21.58;5.18;;;16.70;99.90;;;;;;4977400;28;20521;-83
2022/05/14 07:26:49;;;;;;;25.48;5.45;;;16.70;99.90;;;;;;4960683;28;20054;-84
2022/05/14 07:29:18;;;;;;;26.40;5.40;;;16.70;99.90;;;;;;4978762;28;20377;-82
2022/05/14 07:31:44;;;;;;;22.10;5.90;;;16.70;99.90;;;;;;4961957;28;20046;-83
2022/05/14 07:34:10;;;;;;;21.73;5.65;;;16.80;99.90;;;;;;4975854;28;20490;-83
2022/05/14 07:36:42;;;;;;;24.85;5.80;;;17.00;99.90;;;;;;4975548;28;20047;-83
2022/05/14 07:39:08;;;;;;;24.55;6.05;;;17.10;99.90;;;;;;4958680;28;20120;-83
2022/05/14 07:41:38;;;;;;;23.33;5.35;;;17.30;99.90;;;;;;4958625;28;20077;-81
2022/05/14 07:44:06;;;;;;;24.55;5.70;;;17.50;99.90;;;;;;4974310;28;20051;-81
2022/05/14 07:46:35;;;;;;;22.90;5.32;;;17.50;99.90;;;;;;4977211;28;20073;-83
2022/05/14 07:49:04;;;;;;;19.25;4.78;;;17.40;99.90;;;;;;4977863;28;20089;-80
2022/05/14 07:51:30;;;;;;;22.65;6.13;;;17.50;99.90;;;;;;4957643;28;20140;-81
2022/05/14 07:53:56;;;;;;;22.63;7.07;;;17.60;99.90;;;;;;4975672;28;20130;-81
2022/05/14 07:56:22;;;;;;;18.17;5.40;;;17.60;99.90;;;;;;4958322;28;20114;-82
2022/05/14 07:58:48;;;;;;;21.77;5.30;;;17.60;99.90;;;;;;4974195;28;20953;-82
2022/05/14 08:01:14;;;;;;;22.48;5.35;;;17.60;99.90;;;;;;4958075;28;20113;-82
2022/05/14 08:03:40;;;;;;;17.45;4.75;;;17.90;99.90;;;;;;4958015;28;20097;-82
2022/05/14 08:06:09;;;;;;;18.83;5.88;;;18.00;99.90;;;;;;4957457;28;20519;-81
2022/05/14 08:08:36;;;;;;;21.17;4.43;;;18.00;99.90;;;;;;4977175;28;20390;-83
2022/05/14 08:11:02;;;;;;;19.45;5.63;;;18.00;99.90;;;;;;4975353;28;20458;-83
2022/05/14 08:13:29;;;;;;;14.90;4.30;;;18.10;99.90;;;;;;4974499;28;20151;-82
2022/05/14 08:15:55;;;;;;;18.58;4.47;;;18.10;99.90;;;;;;4973399;28;20566;-81
2022/05/14 08:18:23;;;;;;;21.95;5.38;;;18.10;99.90;;;;;;4957917;28;20426;-81
2022/05/14 08:20:51;;;;;;;16.13;4.47;;;18.00;99.90;;;;;;4974613;28;20051;-83
2022/05/14 08:26:03;;;;;;;20.77;4.85;;;18.50;99.90;;;;;;4957035;28;20058;-82
2022/05/14 08:28:29;;;;;;;20.80;4.90;;;18.70;99.10;;;;;;4974602;28;20062;-82
2022/05/14 08:30:55;;;;;;;18.50;4.63;;;18.50;98.30;;;;;;4956968;28;20471;-82
2022/05/14 08:33:21;;;;;;;20.33;5.30;;;18.50;98.90;;;;;;4975256;28;20130;-84
2022/05/14 08:35:47;;;;;;;17.40;5.30;;;18.70;99.50;;;;;;4974840;28;20042;-83
2022/05/14 08:38:16;;;;;;;20.33;4.75;;;18.80;98.70;;;;;;4975560;28;20051;-83
2022/05/14 08:40:59;;;;;;;20.75;4.70;;;19.00;98.30;;;;;;4957337;28;20561;-82
2022/05/14 08:43:25;;;;;;;14.43;4.50;;;19.10;96.80;;;;;;4974125;28;20574;-85
2022/05/14 08:45:51;;;;;;;18.00;4.68;;;19.00;97.60;;;;;;4974194;28;20055;-84
2022/05/14 08:48:30;;;;;;;26.80;6.25;;;19.30;98.20;;;;;;4956753;28;20058;-82
2022/05/14 08:51:24;;;;;;;18.98;4.85;;;19.50;97.60;;;;;;4973231;28;20506;-82
2022/05/14 08:53:51;;;;;;;18.30;4.63;;;19.60;96.90;;;;;;4956960;28;20061;-83
2022/05/14 08:56:20;;;;;;;22.55;5.18;;;19.70;96.20;;;;;;4973954;28;20137;-84
2022/05/14 08:58:56;;;;;;;25.58;5.40;;;19.60;96.40;;;;;;4956597;28;20078;-83
2022/05/14 09:01:26;;;;;;;22.42;5.28;;;19.80;96.00;;;;;;4956307;28;20062;-82
2022/05/14 09:03:52;;;;;;;20.75;5.72;;;19.90;95.90;;;;;;4973727;28;20050;-84
2022/05/14 09:06:19;;;;;;;19.80;4.63;;;19.90;96.70;;;;;;4956942;28;20102;-81
2022/05/14 09:08:45;;;;;;;18.92;5.28;;;19.80;96.90;;;;;;4974697;28;20120;-83
2022/05/14 09:11:26;;;;;;;20.42;5.65;;;19.80;95.90;;;;;;4975728;28;20133;-83
2022/05/14 09:13:56;;;;;;;18.52;5.28;;;19.90;96.00;;;;;;4976044;28;20050;-82
2022/05/14 09:16:35;;;;;;;20.38;4.60;;;19.90;96.10;;;;;;4973895;28;20054;-84
2022/05/14 09:19:15;;;;;;;22.42;6.15;;;20.00;96.10;;;;;;4956552;28;20186;-82
2022/05/14 09:21:50;;;;;;;21.95;5.53;;;19.80;95.00;;;;;;4956333;28;20150;-82
2022/05/14 09:24:26;;;;;;;22.55;5.22;;;19.70;94.80;;;;;;4972252;28;20058;-82
2022/05/14 09:26:55;;;;;;;20.67;5.03;;;19.70;96.40;;;;;;4957239;28;20070;-83
2022/05/14 09:29:32;;;;;;;21.13;5.53;;;19.80;96.40;;;;;;4974865;28;20194;-81
2022/05/14 09:32:22;;;;;;;20.23;5.80;;;19.80;96.90;;;;;;4956271;28;20430;-84
2022/05/14 09:34:49;;;;;;;27.70;5.97;;;19.90;96.30;;;;;;4970163;28;20403;-82
2022/05/14 09:37:21;;;;;;;25.48;5.50;;;20.10;96.30;;;;;;4973997;28;20507;-82
2022/05/14 09:40:07;;;;;;;19.38;4.80;;;20.40;96.50;;;;;;4973111;28;20093;-82
2022/05/14 09:42:42;;;;;;;21.90;5.45;;;20.60;94.60;;;;;;4955375;28;20055;-82
2022/05/14 09:45:17;;;;;;;22.90;5.07;;;20.80;94.90;;;;;;4956122;28;20051;-81
2022/05/14 09:47:43;;;;;;;22.10;5.70;;;20.80;94.00;;;;;;4974122;28;20046;-84
2022/05/14 09:50:19;;;;;;;23.92;4.85;;;20.70;94.90;;;;;;4976109;28;20466;-82
2022/05/14 09:52:56;;;;;;;19.40;4.57;;;20.80;94.70;;;;;;4971939;28;20050;-81
2022/05/14 09:55:25;;;;;;;20.67;5.32;;;20.90;94.00;;;;;;4973632;28;20086;-81
2022/05/14 09:58:15;;;;;;;20.55;5.45;;;20.80;94.40;;;;;;4973460;28;20050;-83
2022/05/14 10:01:12;;;;;;;21.05;5.35;;;21.10;95.10;;;;;;4973216;28;20159;-84
2022/05/14 10:04:22;;;;;;;16.42;5.03;;;21.50;93.20;;;;;;4956144;28;20061;-84
2022/05/14 10:06:56;;;;;;;19.30;5.18;;;21.60;92.60;;;;;;4973898;28;20138;-84
2022/05/14 10:09:28;;;;;;;20.80;5.00;;;21.80;93.70;;;;;;4971851;28;20121;-85
2022/05/14 10:12:08;;;;;;;18.60;5.63;;;21.60;93.40;;;;;;4973123;28;20200;-83
2022/05/14 10:14:43;;;;;;;19.90;4.70;;;21.60;93.00;;;;;;4973057;28;20050;-83
2022/05/14 10:17:16;;;;;;;18.90;4.40;;;21.90;91.70;;;;;;4972659;28;20050;-84
2022/05/14 10:19:53;;;;;;;18.30;6.07;;;21.90;92.00;;;;;;4972880;28;20051;-84
2022/05/14 10:28:54;;;;;;;22.40;5.13;;;22.30;92.00;;;;;;4956357;28;20491;-82
2022/05/14 10:31:58;;;;;;;25.45;6.53;;;22.40;91.80;;;;;;4972706;28;20499;-84
2022/05/14 10:34:35;;;;;;;18.83;4.88;;;22.50;91.60;;;;;;4955375;28;20432;-86
2022/05/14 10:37:06;;;;;;;20.15;6.05;;;22.90;92.20;;;;;;4955383;28;20086;-83
2022/05/14 10:39:41;;;;;;;17.90;5.15;;;22.90;92.10;;;;;;4977765;28;20057;-82
2022/05/14 10:42:19;;;;;;;17.65;5.55;;;22.90;91.70;;;;;;4975612;28;20061;-84
2022/05/14 10:45:09;;;;;;;22.58;5.35;;;23.10;91.40;;;;;;4957376;28;20407;-81
2022/05/14 10:47:39;;;;;;;27.60;5.50;;;23.00;91.40;;;;;;4974453;28;20046;-81
2022/05/14 10:50:14;;;;;;;26.65;6.18;;;23.00;91.70;;;;;;4973363;28;20058;-82
2022/05/14 10:52:41;;;;;;;24.02;5.28;;;23.10;91.20;;;;;;4973402;28;20376;-84
2022/05/14 10:55:17;;;;;;;18.67;5.38;;;23.10;91.40;;;;;;4957786;28;20145;-82
2022/05/14 10:57:47;;;;;;;22.10;5.25;;;23.20;91.20;;;;;;4955731;28;20525;-84
2022/05/14 11:00:40;;;;;;;27.55;5.95;;;23.40;91.80;;;;;;4973066;28;20509;-83
2022/05/14 11:03:27;;;;;;;21.58;5.95;;;23.50;88.80;;;;;;4972814;28;20050;-81
2022/05/14 11:06:02;;;;;;;20.75;4.88;;;23.40;90.10;;;;;;4955435;28;20435;-85
2022/05/14 11:08:46;;;;;;;16.77;4.80;;;23.40;90.50;;;;;;4972952;28;20051;-84
2022/05/14 11:11:26;;;;;;;23.65;5.47;;;23.60;87.40;;;;;;4976621;28;20057;-85
2022/05/14 11:13:56;;;;;;;17.67;5.05;;;23.50;86.70;;;;;;4973048;28;20046;-84
2022/05/14 11:16:33;;;;;;;23.52;5.40;;;23.40;86.10;;;;;;4972550;28;20046;-83
2022/05/14 11:19:00;;;;;;;19.08;5.32;;;23.40;87.80;;;;;;4939929;28;20101;-82
2022/05/14 11:21:41;;;;;;;25.65;6.25;;;23.70;90.10;;;;;;4971999;28;20235;-83
2022/05/14 11:24:11;;;;;;;20.15;5.78;;;24.00;87.60;;;;;;4973933;28;20586;-86
2022/05/14 11:26:54;;;;;;;20.42;5.20;;;24.00;88.40;;;;;;4972747;28;20053;-85
2022/05/14 11:29:23;;;;;;;21.05;5.85;;;23.80;81.90;;;;;;4972978;28;20058;-85
2022/05/14 11:32:11;;;;;;;22.77;5.68;;;24.00;85.80;;;;;;4978104;28;20487;-83
2022/05/14 11:34:37;;;;;;;21.77;5.00;;;24.00;84.10;;;;;;4954908;28;20150;-85
2022/05/14 11:37:05;;;;;;;20.45;5.97;;;24.10;85.50;;;;;;4954625;28;20495;-86
2022/05/14 11:39:35;;;;;;;15.88;4.30;;;24.30;84.60;;;;;;4954840;28;20065;-85
2022/05/14 11:42:27;;;;;;;19.92;4.90;;;24.30;83.20;;;;;;4954446;28;20054;-85
2022/05/14 11:45:03;;;;;;;28.10;6.15;;;24.40;83.00;;;;;;4954863;28;20495;-85
2022/05/14 11:47:46;;;;;;;18.83;5.22;;;24.60;79.80;;;;;;4954859;28;20074;-85
2022/05/14 11:50:14;;;;;;;19.83;5.80;;;24.60;81.30;;;;;;4959635;28;20059;-84
2022/05/14 11:53:07;;;;;;;25.15;6.47;;;24.50;81.00;;;;;;4978862;28;20142;-87
2022/05/14 11:55:44;;;;;;;20.00;5.05;;;24.50;82.70;;;;;;4975801;28;20057;-83
2022/05/14 11:58:33;;;;;;;20.33;5.60;;;24.70;80.80;;;;;;4958410;28;20499;-83
2022/05/14 12:01:04;;;;;;;17.85;5.68;;;24.70;81.20;;;;;;4974792;28;20051;-87
2022/05/14 12:03:34;;;;;;;21.63;5.07;;;24.70;81.00;;;;;;4975582;28;20137;-87
2022/05/14 12:06:27;;;;;;;24.92;6.35;;;25.00;82.30;;;;;;4957766;28;20062;-82
2022/05/14 12:09:25;;;;;;;22.20;5.45;;;25.10;77.40;;;;;;4960037;28;20562;-86
2022/05/14 12:12:05;;;;;;;21.45;5.35;;;25.30;78.60;;;;;;4975309;28;20129;-84
2022/05/14 12:14:33;;;;;;;21.58;5.43;;;25.40;79.40;;;;;;4959019;28;20051;-82
2022/05/14 12:17:02;;;;;;;17.77;5.43;;;25.70;75.80;;;;;;4975272;28;20054;-83
2022/05/14 12:19:31;;;;;;;21.73;6.10;;;25.30;74.30;;;;;;4974997;28;20059;-85
2022/05/14 12:21:58;;;;;;;22.20;5.45;;;25.40;78.00;;;;;;4976665;28;20088;-82
2022/05/14 12:28:06;;;;;;;18.00;4.90;;;26.00;72.40;;;;;;4974425;28;20635;-82
2022/05/14 12:33:21;;;;;;;23.42;5.00;;;25.80;70.70;;;;;;4974640;28;20098;-82
2022/05/14 12:35:58;;;;;;;23.63;5.72;;;25.90;70.40;;;;;;4975350;28;20498;-84
2022/05/14 12:38:29;;;;;;;20.27;5.95;;;26.00;70.20;;;;;;4960447;28;20050;-84
2022/05/14 12:40:57;;;;;;;21.33;6.22;;;26.40;69.80;;;;;;4976717;28;20050;-83
2022/05/14 12:43:26;;;;;;;21.88;6.10;;;26.10;71.50;;;;;;4974637;28;20101;-83
2022/05/14 12:46:10;;;;;;;20.10;5.45;;;26.00;71.50;;;;;;4974108;28;20093;-82
2022/05/14 12:48:44;;;;;;;16.75;4.75;;;26.60;68.60;;;;;;4956730;28;20094;-82
2022/05/14 12:51:17;;;;;;;17.67;4.47;;;26.90;69.60;;;;;;4956394;28;20515;-81
2022/05/14 12:53:43;;;;;;;23.23;6.20;;;27.60;67.00;;;;;;4956427;28;20051;-82
2022/05/14 12:56:09;;;;;;;18.60;6.05;;;27.70;61.90;;;;;;4958043;28;20065;-85
2022/05/14 12:58:37;;;;;;;23.80;6.07;;;27.30;62.00;;;;;;4957278;28;20062;-83
2022/05/14 13:01:05;;;;;;;28.02;6.40;;;27.50;61.40;;;;;;4973838;28;20068;-82
2022/05/14 13:03:46;;;;;;;17.92;5.18;;;27.50;60.50;;;;;;4958733;28;20047;-84
2022/05/14 13:06:22;;;;;;;20.63;5.00;;;27.60;58.80;;;;;;4973761;28;20106;-82
2022/05/14 13:08:52;;;;;;;21.83;5.90;;;27.40;60.80;;;;;;4974009;28;20063;-86
2022/05/14 13:11:23;;;;;;;26.13;6.25;;;27.80;58.60;;;;;;4957083;28;20567;-85
2022/05/14 13:13:52;;;;;;;22.73;4.97;;;26.90;57.70;;;;;;4976441;28;20055;-83
2022/05/14 13:16:28;;;;;;;23.33;6.00;;;26.70;58.00;;;;;;4956031;28;20055;-84
2022/05/14 13:19:00;;;;;;;22.10;5.53;;;27.10;59.50;;;;;;4973589;28;20050;-85